createdAt,value
2022-10-22T00:07:53.021Z,3.20
2022-10-22T00:17:54.365Z,3.20
2022-10-22T00:27:55.967Z,3.10
2022-10-22T00:37:57.301Z,3.42
2022-10-22T00:48:18.337Z,3.60
2022-10-22T00:58:24.138Z,3.90
2022-10-22T01:08:41.287Z,3.88
2022-10-22T01:18:54.796Z,3.90
2022-10-22T01:29:25.168Z,3.70
2022-10-22T01:39:29.259Z,4.50
2022-10-22T01:49:44.854Z,4.25
2022-10-22T02:00:00.716Z,3.80
2022-10-22T02:21:24.428Z,3.80
2022-10-22T02:31:32.505Z,3.60
2022-10-22T02:41:34.312Z,4.53
2022-10-22T02:51:35.651Z,4.90
2022-10-22T03:01:36.986Z,4.47
2022-10-22T03:11:38.353Z,4.47
2022-10-22T03:21:43.928Z,4.78
2022-10-22T03:31:45.271Z,5.00
2022-10-22T03:41:49.281Z,4.70
2022-10-22T03:51:50.688Z,4.77
2022-10-22T04:01:52.062Z,4.93
2022-10-22T04:11:53.381Z,5.03
2022-10-22T04:21:54.752Z,5.37
2022-10-22T04:31:56.224Z,5.57
2022-10-22T04:41:57.560Z,5.30
2022-10-22T04:51:58.944Z,5.50
2022-10-22T05:02:00.309Z,6.38
2022-10-22T05:12:01.665Z,5.47
2022-10-22T05:22:04.648Z,6.30
2022-10-22T05:32:06.022Z,5.77
2022-10-22T05:42:07.372Z,5.38
2022-10-22T05:52:08.743Z,5.80
2022-10-22T06:02:10.291Z,5.30
2022-10-22T06:12:13.646Z,5.43
2022-10-22T06:22:14.982Z,5.80
2022-10-22T06:32:16.336Z,6.10
2022-10-22T06:42:17.735Z,6.43
2022-10-22T06:52:19.141Z,5.97
2022-10-22T07:02:20.457Z,6.70
2022-10-22T07:12:21.806Z,6.27
2022-10-22T07:22:23.140Z,6.28
2022-10-22T07:32:24.515Z,5.70
2022-10-22T07:42:25.904Z,4.67
2022-10-22T07:52:27.720Z,3.95
2022-10-22T08:02:29.050Z,3.83
2022-10-22T08:12:30.432Z,2.60
2022-10-22T08:22:31.911Z,3.55
2022-10-22T08:32:33.368Z,4.22
2022-10-22T08:43:09.205Z,2.33
2022-10-22T08:53:17.336Z,3.57
2022-10-22T09:03:21.434Z,2.40
2022-10-22T09:13:23.761Z,2.70
2022-10-22T09:23:49.920Z,2.63
2022-10-22T09:33:51.462Z,2.30
2022-10-22T09:43:52.920Z,2.30
2022-10-22T09:54:00.069Z,2.30
2022-10-22T10:04:09.629Z,1.85
2022-10-22T10:14:21.381Z,2.30
2022-10-22T10:24:41.223Z,1.70
2022-10-22T10:34:57.853Z,1.80
2022-10-22T10:45:16.714Z,2.00
2022-10-22T10:55:30.853Z,1.93
2022-10-22T11:05:39.756Z,1.73
2022-10-22T11:15:44.260Z,1.77
2022-10-22T11:25:48.004Z,1.40
2022-10-22T11:35:51.022Z,1.40
2022-10-22T11:46:00.791Z,1.83
2022-10-22T11:56:09.816Z,1.10
2022-10-22T12:06:11.949Z,1.20
2022-10-22T12:16:14.938Z,1.53
2022-10-22T12:36:36.417Z,1.37
2022-10-22T12:46:37.768Z,1.33
2022-10-22T12:56:39.238Z,1.50
2022-10-22T13:06:45.113Z,1.27
2022-10-22T13:17:19.400Z,1.40
2022-10-22T13:27:20.735Z,1.20
2022-10-22T13:37:22.249Z,1.02
2022-10-22T13:47:26.946Z,1.10
2022-10-22T13:57:28.287Z,1.40
2022-10-22T14:07:29.747Z,1.40
2022-10-22T14:17:31.608Z,1.50
2022-10-22T14:27:32.966Z,1.57
2022-10-22T14:37:34.330Z,1.60
2022-10-22T14:47:35.689Z,1.70
2022-10-22T14:57:39.198Z,1.80
2022-10-22T15:07:41.806Z,2.40
2022-10-22T15:17:43.792Z,1.50
2022-10-22T15:27:50.346Z,1.73
2022-10-22T15:37:53.151Z,1.87
2022-10-22T15:47:54.495Z,1.65
2022-10-22T15:57:58.034Z,1.90
2022-10-22T16:08:01.939Z,2.10
2022-10-22T16:18:03.482Z,1.70
2022-10-22T16:28:05.128Z,2.30
2022-10-22T16:38:06.878Z,2.73
2022-10-22T16:48:09.024Z,2.25
2022-10-22T16:58:10.371Z,3.20
2022-10-22T17:08:11.903Z,6.83
2022-10-22T17:18:13.350Z,16.20
2022-10-22T17:28:14.672Z,5.45
2022-10-22T17:38:15.986Z,4.60
2022-10-22T17:48:17.417Z,4.57
2022-10-22T17:58:18.765Z,5.28
2022-10-22T18:08:20.152Z,9.50
2022-10-22T18:18:23.147Z,9.80
2022-10-22T18:28:24.581Z,8.43
2022-10-22T18:38:25.916Z,10.60
2022-10-22T18:48:27.315Z,8.77
2022-10-22T18:58:28.638Z,9.37
2022-10-22T19:08:30.221Z,8.40
2022-10-22T19:18:31.714Z,8.30
2022-10-22T19:28:33.286Z,7.77
2022-10-22T19:38:37.629Z,8.38
2022-10-22T19:48:39.407Z,7.57
2022-10-22T19:58:40.817Z,11.67
2022-10-22T20:08:42.485Z,12.02
2022-10-22T20:18:43.876Z,20.25
2022-10-22T20:28:45.200Z,8.80
2022-10-22T20:38:48.117Z,9.53
2022-10-22T20:48:55.044Z,12.60
2022-10-22T20:59:04.726Z,9.70
2022-10-22T21:09:08.218Z,9.53
2022-10-22T21:19:09.707Z,9.65
2022-10-22T21:29:12.375Z,11.07
2022-10-22T21:39:14.058Z,9.07
2022-10-22T21:49:15.450Z,9.15
2022-10-22T21:59:16.795Z,8.45
2022-10-22T22:09:18.720Z,7.40
2022-10-22T22:19:20.137Z,5.43
2022-10-22T22:29:21.500Z,5.97
2022-10-22T22:39:24.127Z,11.13
2022-10-22T22:49:25.487Z,5.70
2022-10-22T22:59:26.897Z,5.28
2022-10-22T23:09:28.264Z,5.93
2022-10-22T23:19:29.662Z,5.33
2022-10-22T23:29:33.603Z,4.25
2022-10-22T23:39:34.978Z,4.65
2022-10-22T23:49:36.341Z,4.50
2022-10-22T23:59:37.701Z,4.07
